sensor_id;sensor_type;location;lat;lon;timestamp;P1;durP1;ratioP1;P2;durP2;ratioP2
55800;SDS011;41730;51.960;20.158;2023-03-03T00:00:47;133.40;;;50.70;;
55800;SDS011;41730;51.960;20.158;2023-03-03T00:03:21;138.10;;;53.60;;
55800;SDS011;41730;51.960;20.158;2023-03-03T00:05:54;135.00;;;49.90;;
55800;SDS011;41730;51.960;20.158;2023-03-03T00:08:27;132.40;;;48.80;;
55800;SDS011;41730;51.960;20.158;2023-03-03T00:10:59;128.90;;;50.20;;
55800;SDS011;41730;51.960;20.158;2023-03-03T00:13:36;138.70;;;50.80;;
55800;SDS011;41730;51.960;20.158;2023-03-03T00:16:20;145.20;;;52.10;;
55800;SDS011;41730;51.960;20.158;2023-03-03T00:18:55;128.30;;;47.80;;
55800;SDS011;41730;51.960;20.158;2023-03-03T00:21:29;127.40;;;49.20;;
55800;SDS011;41730;51.960;20.158;2023-03-03T00:24:10;141.80;;;51.80;;
55800;SDS011;41730;51.960;20.158;2023-03-03T00:26:49;132.90;;;51.30;;
55800;SDS011;41730;51.960;20.158;2023-03-03T00:29:32;139.90;;;51.40;;
55800;SDS011;41730;51.960;20.158;2023-03-03T00:32:22;136.30;;;51.60;;
55800;SDS011;41730;51.960;20.158;2023-03-03T00:34:59;136.60;;;51.50;;
55800;SDS011;41730;51.960;20.158;2023-03-03T00:37:53;147.40;;;54.30;;
55800;SDS011;41730;51.960;20.158;2023-03-03T00:40:29;145.80;;;54.60;;
55800;SDS011;41730;51.960;20.158;2023-03-03T00:43:11;156.20;;;55.00;;
55800;SDS011;41730;51.960;20.158;2023-03-03T00:45:48;135.40;;;51.20;;
55800;SDS011;41730;51.960;20.158;2023-03-03T00:48:22;151.90;;;52.40;;
55800;SDS011;41730;51.960;20.158;2023-03-03T00:50:56;144.60;;;54.80;;
55800;SDS011;41730;51.960;20.158;2023-03-03T00:53:29;149.60;;;55.80;;
55800;SDS011;41730;51.960;20.158;2023-03-03T00:56:01;144.40;;;52.50;;
55800;SDS011;41730;51.960;20.158;2023-03-03T00:58:33;146.90;;;54.20;;
55800;SDS011;41730;51.960;20.158;2023-03-03T01:01:04;150.10;;;54.70;;
55800;SDS011;41730;51.960;20.158;2023-03-03T01:03:36;159.80;;;57.80;;
55800;SDS011;41730;51.960;20.158;2023-03-03T01:06:08;150.10;;;55.10;;
55800;SDS011;41730;51.960;20.158;2023-03-03T01:08:41;138.80;;;52.60;;
55800;SDS011;41730;51.960;20.158;2023-03-03T01:11:14;148.90;;;53.10;;
55800;SDS011;41730;51.960;20.158;2023-03-03T01:13:50;153.10;;;56.30;;
55800;SDS011;41730;51.960;20.158;2023-03-03T01:16:23;148.70;;;54.40;;
55800;SDS011;41730;51.960;20.158;2023-03-03T01:18:55;153.20;;;55.60;;
55800;SDS011;41730;51.960;20.158;2023-03-03T01:21:28;148.20;;;55.60;;
55800;SDS011;41730;51.960;20.158;2023-03-03T01:23:59;146.30;;;57.10;;
55800;SDS011;41730;51.960;20.158;2023-03-03T01:26:31;156.70;;;55.50;;
55800;SDS011;41730;51.960;20.158;2023-03-03T01:29:03;154.00;;;57.00;;
55800;SDS011;41730;51.960;20.158;2023-03-03T01:31:35;154.00;;;56.20;;
55800;SDS011;41730;51.960;20.158;2023-03-03T01:34:08;151.10;;;55.10;;
55800;SDS011;41730;51.960;20.158;2023-03-03T01:36:40;153.30;;;53.90;;
55800;SDS011;41730;51.960;20.158;2023-03-03T01:39:12;142.40;;;54.30;;
55800;SDS011;41730;51.960;20.158;2023-03-03T01:41:44;155.60;;;57.10;;
55800;SDS011;41730;51.960;20.158;2023-03-03T01:44:16;153.70;;;56.50;;
55800;SDS011;41730;51.960;20.158;2023-03-03T01:46:50;147.50;;;55.90;;
55800;SDS011;41730;51.960;20.158;2023-03-03T01:49:27;163.90;;;59.50;;
55800;SDS011;41730;51.960;20.158;2023-03-03T01:52:03;151.70;;;57.00;;
55800;SDS011;41730;51.960;20.158;2023-03-03T01:54:41;141.70;;;54.40;;
55800;SDS011;41730;51.960;20.158;2023-03-03T01:57:17;142.90;;;53.80;;
55800;SDS011;41730;51.960;20.158;2023-03-03T01:59:55;125.00;;;50.10;;
55800;SDS011;41730;51.960;20.158;2023-03-03T02:02:29;125.30;;;48.20;;
55800;SDS011;41730;51.960;20.158;2023-03-03T02:05:05;123.50;;;49.40;;
55800;SDS011;41730;51.960;20.158;2023-03-03T02:10:09;126.00;;;48.00;;
55800;SDS011;41730;51.960;20.158;2023-03-03T02:12:46;127.30;;;49.20;;
55800;SDS011;41730;51.960;20.158;2023-03-03T02:15:21;120.80;;;47.40;;
55800;SDS011;41730;51.960;20.158;2023-03-03T02:17:55;107.30;;;43.60;;
55800;SDS011;41730;51.960;20.158;2023-03-03T02:20:31;109.80;;;44.70;;
55800;SDS011;41730;51.960;20.158;2023-03-03T02:23:15;103.90;;;42.80;;
55800;SDS011;41730;51.960;20.158;2023-03-03T02:28:36;96.50;;;39.80;;
55800;SDS011;41730;51.960;20.158;2023-03-03T02:31:10;111.70;;;42.30;;
55800;SDS011;41730;51.960;20.158;2023-03-03T02:36:15;119.00;;;45.50;;
55800;SDS011;41730;51.960;20.158;2023-03-03T02:38:50;112.00;;;42.90;;
55800;SDS011;41730;51.960;20.158;2023-03-03T02:41:29;111.80;;;44.60;;
55800;SDS011;41730;51.960;20.158;2023-03-03T02:44:05;94.00;;;39.10;;
55800;SDS011;41730;51.960;20.158;2023-03-03T02:46:39;91.80;;;38.60;;
55800;SDS011;41730;51.960;20.158;2023-03-03T02:49:14;102.10;;;38.60;;
55800;SDS011;41730;51.960;20.158;2023-03-03T02:51:48;96.10;;;37.70;;
55800;SDS011;41730;51.960;20.158;2023-03-03T02:54:20;93.20;;;37.30;;
55800;SDS011;41730;51.960;20.158;2023-03-03T02:56:53;97.50;;;38.90;;
55800;SDS011;41730;51.960;20.158;2023-03-03T02:59:25;102.20;;;38.20;;
55800;SDS011;41730;51.960;20.158;2023-03-03T03:01:57;96.30;;;37.80;;
55800;SDS011;41730;51.960;20.158;2023-03-03T03:04:28;94.60;;;38.70;;
55800;SDS011;41730;51.960;20.158;2023-03-03T03:07:00;95.60;;;37.80;;
55800;SDS011;41730;51.960;20.158;2023-03-03T03:09:31;90.00;;;37.50;;
55800;SDS011;41730;51.960;20.158;2023-03-03T03:12:03;92.00;;;35.80;;
55800;SDS011;41730;51.960;20.158;2023-03-03T03:14:35;89.90;;;35.20;;
55800;SDS011;41730;51.960;20.158;2023-03-03T03:17:07;91.50;;;36.80;;
55800;SDS011;41730;51.960;20.158;2023-03-03T03:19:40;90.80;;;36.30;;
55800;SDS011;41730;51.960;20.158;2023-03-03T03:22:12;80.30;;;33.90;;
55800;SDS011;41730;51.960;20.158;2023-03-03T03:24:43;92.20;;;36.50;;
55800;SDS011;41730;51.960;20.158;2023-03-03T03:27:15;95.40;;;36.80;;
55800;SDS011;41730;51.960;20.158;2023-03-03T03:29:47;89.30;;;37.30;;
55800;SDS011;41730;51.960;20.158;2023-03-03T03:32:19;84.70;;;35.60;;
55800;SDS011;41730;51.960;20.158;2023-03-03T03:34:51;84.50;;;36.90;;
55800;SDS011;41730;51.960;20.158;2023-03-03T03:37:23;96.70;;;38.10;;
55800;SDS011;41730;51.960;20.158;2023-03-03T03:39:55;86.00;;;37.60;;
55800;SDS011;41730;51.960;20.158;2023-03-03T03:42:27;90.70;;;38.70;;
55800;SDS011;41730;51.960;20.158;2023-03-03T03:44:58;92.30;;;36.60;;
55800;SDS011;41730;51.960;20.158;2023-03-03T03:47:30;89.80;;;36.40;;
55800;SDS011;41730;51.960;20.158;2023-03-03T03:50:01;92.20;;;39.30;;
55800;SDS011;41730;51.960;20.158;2023-03-03T03:52:33;91.20;;;37.30;;
55800;SDS011;41730;51.960;20.158;2023-03-03T03:55:06;98.30;;;37.80;;
55800;SDS011;41730;51.960;20.158;2023-03-03T03:57:38;94.20;;;36.20;;
55800;SDS011;41730;51.960;20.158;2023-03-03T04:00:11;104.80;;;38.70;;
55800;SDS011;41730;51.960;20.158;2023-03-03T04:02:43;89.40;;;35.80;;
55800;SDS011;41730;51.960;20.158;2023-03-03T04:05:17;89.80;;;33.10;;
55800;SDS011;41730;51.960;20.158;2023-03-03T04:07:49;82.90;;;32.90;;
55800;SDS011;41730;51.960;20.158;2023-03-03T04:10:20;95.50;;;33.80;;
55800;SDS011;41730;51.960;20.158;2023-03-03T04:12:52;90.50;;;33.10;;
55800;SDS011;41730;51.960;20.158;2023-03-03T04:15:24;87.90;;;32.70;;
55800;SDS011;41730;51.960;20.158;2023-03-03T04:17:56;88.30;;;34.40;;
55800;SDS011;41730;51.960;20.158;2023-03-03T04:20:27;94.80;;;34.20;;
55800;SDS011;41730;51.960;20.158;2023-03-03T04:22:59;89.60;;;32.80;;
55800;SDS011;41730;51.960;20.158;2023-03-03T04:25:30;104.40;;;37.20;;
55800;SDS011;41730;51.960;20.158;2023-03-03T04:28:02;89.10;;;30.20;;
55800;SDS011;41730;51.960;20.158;2023-03-03T04:30:35;98.40;;;33.50;;
55800;SDS011;41730;51.960;20.158;2023-03-03T04:33:07;83.80;;;29.90;;
55800;SDS011;41730;51.960;20.158;2023-03-03T04:35:39;89.80;;;31.60;;
55800;SDS011;41730;51.960;20.158;2023-03-03T04:38:10;88.60;;;30.80;;
55800;SDS011;41730;51.960;20.158;2023-03-03T04:40:42;88.70;;;31.10;;
55800;SDS011;41730;51.960;20.158;2023-03-03T04:43:14;95.60;;;31.40;;
55800;SDS011;41730;51.960;20.158;2023-03-03T04:45:46;98.70;;;32.30;;
55800;SDS011;41730;51.960;20.158;2023-03-03T04:48:17;89.40;;;30.30;;
55800;SDS011;41730;51.960;20.158;2023-03-03T04:50:49;83.40;;;27.40;;
55800;SDS011;41730;51.960;20.158;2023-03-03T04:53:21;83.30;;;28.40;;
55800;SDS011;41730;51.960;20.158;2023-03-03T04:55:53;93.50;;;31.50;;
55800;SDS011;41730;51.960;20.158;2023-03-03T04:58:25;89.50;;;30.50;;
55800;SDS011;41730;51.960;20.158;2023-03-03T05:00:57;86.00;;;29.30;;
55800;SDS011;41730;51.960;20.158;2023-03-03T05:03:29;80.80;;;27.80;;
55800;SDS011;41730;51.960;20.158;2023-03-03T05:06:01;79.40;;;26.70;;
55800;SDS011;41730;51.960;20.158;2023-03-03T05:08:33;82.00;;;29.60;;
55800;SDS011;41730;51.960;20.158;2023-03-03T05:11:06;86.10;;;29.60;;
55800;SDS011;41730;51.960;20.158;2023-03-03T05:13:39;75.80;;;26.30;;
55800;SDS011;41730;51.960;20.158;2023-03-03T05:16:12;90.90;;;30.50;;
55800;SDS011;41730;51.960;20.158;2023-03-03T05:18:55;94.90;;;31.60;;
55800;SDS011;41730;51.960;20.158;2023-03-03T05:21:42;90.00;;;31.40;;
55800;SDS011;41730;51.960;20.158;2023-03-03T05:24:35;91.90;;;31.40;;
55800;SDS011;41730;51.960;20.158;2023-03-03T05:27:10;86.20;;;29.40;;
55800;SDS011;41730;51.960;20.158;2023-03-03T05:29:42;91.00;;;30.70;;
55800;SDS011;41730;51.960;20.158;2023-03-03T05:32:15;78.20;;;29.60;;
55800;SDS011;41730;51.960;20.158;2023-03-03T05:34:46;79.90;;;28.20;;
55800;SDS011;41730;51.960;20.158;2023-03-03T05:37:20;73.30;;;26.70;;
55800;SDS011;41730;51.960;20.158;2023-03-03T05:39:51;80.40;;;27.30;;
55800;SDS011;41730;51.960;20.158;2023-03-03T05:42:23;73.70;;;26.80;;
55800;SDS011;41730;51.960;20.158;2023-03-03T05:44:55;88.70;;;31.00;;
55800;SDS011;41730;51.960;20.158;2023-03-03T05:47:26;77.90;;;26.80;;
55800;SDS011;41730;51.960;20.158;2023-03-03T05:49:58;88.10;;;29.70;;
55800;SDS011;41730;51.960;20.158;2023-03-03T05:52:30;87.50;;;31.20;;
55800;SDS011;41730;51.960;20.158;2023-03-03T05:55:01;74.70;;;25.60;;
55800;SDS011;41730;51.960;20.158;2023-03-03T05:57:33;73.60;;;25.70;;
55800;SDS011;41730;51.960;20.158;2023-03-03T06:00:06;80.30;;;28.40;;
55800;SDS011;41730;51.960;20.158;2023-03-03T06:02:39;69.90;;;26.50;;
55800;SDS011;41730;51.960;20.158;2023-03-03T06:05:12;72.90;;;27.00;;
55800;SDS011;41730;51.960;20.158;2023-03-03T06:07:43;71.00;;;26.60;;
55800;SDS011;41730;51.960;20.158;2023-03-03T06:10:15;82.10;;;28.90;;
55800;SDS011;41730;51.960;20.158;2023-03-03T06:12:47;73.20;;;26.10;;
55800;SDS011;41730;51.960;20.158;2023-03-03T06:15:19;84.50;;;31.20;;
55800;SDS011;41730;51.960;20.158;2023-03-03T06:17:51;82.70;;;29.40;;
55800;SDS011;41730;51.960;20.158;2023-03-03T06:20:23;81.80;;;29.00;;
55800;SDS011;41730;51.960;20.158;2023-03-03T06:22:55;77.30;;;28.10;;
55800;SDS011;41730;51.960;20.158;2023-03-03T06:25:27;92.00;;;32.10;;
55800;SDS011;41730;51.960;20.158;2023-03-03T06:27:58;86.20;;;30.00;;
55800;SDS011;41730;51.960;20.158;2023-03-03T06:30:32;70.80;;;25.50;;
55800;SDS011;41730;51.960;20.158;2023-03-03T06:33:05;77.40;;;29.00;;
55800;SDS011;41730;51.960;20.158;2023-03-03T06:35:37;76.20;;;28.30;;
55800;SDS011;41730;51.960;20.158;2023-03-03T06:38:09;67.80;;;27.10;;
55800;SDS011;41730;51.960;20.158;2023-03-03T06:40:41;88.00;;;31.00;;
55800;SDS011;41730;51.960;20.158;2023-03-03T06:43:13;77.00;;;28.90;;
55800;SDS011;41730;51.960;20.158;2023-03-03T06:45:45;87.80;;;33.10;;
55800;SDS011;41730;51.960;20.158;2023-03-03T06:48:17;85.70;;;31.10;;
55800;SDS011;41730;51.960;20.158;2023-03-03T06:50:50;80.80;;;29.50;;
55800;SDS011;41730;51.960;20.158;2023-03-03T06:53:22;76.00;;;28.70;;
55800;SDS011;41730;51.960;20.158;2023-03-03T06:55:55;80.80;;;29.50;;
55800;SDS011;41730;51.960;20.158;2023-03-03T06:58:29;78.10;;;28.90;;
55800;SDS011;41730;51.960;20.158;2023-03-03T07:01:14;78.60;;;29.00;;
55800;SDS011;41730;51.960;20.158;2023-03-03T07:03:46;85.40;;;31.40;;
55800;SDS011;41730;51.960;20.158;2023-03-03T07:06:21;74.50;;;29.50;;
55800;SDS011;41730;51.960;20.158;2023-03-03T07:08:55;77.70;;;27.20;;
55800;SDS011;41730;51.960;20.158;2023-03-03T07:11:29;69.60;;;28.10;;
55800;SDS011;41730;51.960;20.158;2023-03-03T07:14:07;75.50;;;28.40;;
55800;SDS011;41730;51.960;20.158;2023-03-03T07:16:45;68.70;;;27.10;;
55800;SDS011;41730;51.960;20.158;2023-03-03T07:19:22;88.80;;;34.60;;
55800;SDS011;41730;51.960;20.158;2023-03-03T07:22:01;85.90;;;34.00;;
55800;SDS011;41730;51.960;20.158;2023-03-03T07:24:44;88.20;;;35.60;;
55800;SDS011;41730;51.960;20.158;2023-03-03T07:27:21;85.70;;;37.10;;
55800;SDS011;41730;51.960;20.158;2023-03-03T07:29:59;89.50;;;36.50;;
55800;SDS011;41730;51.960;20.158;2023-03-03T07:32:48;75.40;;;30.20;;
55800;SDS011;41730;51.960;20.158;2023-03-03T07:35:37;86.00;;;31.40;;
55800;SDS011;41730;51.960;20.158;2023-03-03T07:38:15;72.10;;;29.20;;
55800;SDS011;41730;51.960;20.158;2023-03-03T07:40:53;78.40;;;30.70;;
55800;SDS011;41730;51.960;20.158;2023-03-03T07:43:35;69.00;;;28.70;;
55800;SDS011;41730;51.960;20.158;2023-03-03T07:46:22;75.50;;;29.40;;
55800;SDS011;41730;51.960;20.158;2023-03-03T07:49:01;81.30;;;29.00;;
55800;SDS011;41730;51.960;20.158;2023-03-03T07:51:53;69.30;;;27.90;;
55800;SDS011;41730;51.960;20.158;2023-03-03T07:54:30;64.60;;;25.30;;
55800;SDS011;41730;51.960;20.158;2023-03-03T07:57:14;65.90;;;28.80;;
55800;SDS011;41730;51.960;20.158;2023-03-03T07:59:54;82.10;;;31.50;;
55800;SDS011;41730;51.960;20.158;2023-03-03T08:02:52;74.60;;;27.70;;
55800;SDS011;41730;51.960;20.158;2023-03-03T08:05:30;73.20;;;30.00;;
55800;SDS011;41730;51.960;20.158;2023-03-03T08:08:14;73.60;;;30.40;;
55800;SDS011;41730;51.960;20.158;2023-03-03T08:11:00;68.50;;;24.40;;
55800;SDS011;41730;51.960;20.158;2023-03-03T08:13:37;63.70;;;24.60;;
55800;SDS011;41730;51.960;20.158;2023-03-03T08:16:27;72.10;;;28.30;;
55800;SDS011;41730;51.960;20.158;2023-03-03T08:19:06;68.80;;;26.50;;
55800;SDS011;41730;51.960;20.158;2023-03-03T08:21:40;72.70;;;28.10;;
55800;SDS011;41730;51.960;20.158;2023-03-03T08:24:13;74.90;;;26.90;;
55800;SDS011;41730;51.960;20.158;2023-03-03T08:26:46;73.80;;;27.60;;
55800;SDS011;41730;51.960;20.158;2023-03-03T08:29:19;78.30;;;29.90;;
55800;SDS011;41730;51.960;20.158;2023-03-03T08:31:52;69.90;;;28.50;;
55800;SDS011;41730;51.960;20.158;2023-03-03T08:34:25;79.00;;;28.30;;
55800;SDS011;41730;51.960;20.158;2023-03-03T08:36:58;64.30;;;26.00;;
55800;SDS011;41730;51.960;20.158;2023-03-03T08:39:31;75.90;;;28.50;;
55800;SDS011;41730;51.960;20.158;2023-03-03T08:42:03;63.60;;;25.90;;
55800;SDS011;41730;51.960;20.158;2023-03-03T08:44:36;68.40;;;25.80;;
55800;SDS011;41730;51.960;20.158;2023-03-03T08:47:09;70.80;;;27.70;;
55800;SDS011;41730;51.960;20.158;2023-03-03T08:49:41;68.70;;;26.10;;
55800;SDS011;41730;51.960;20.158;2023-03-03T08:52:14;81.30;;;31.00;;
55800;SDS011;41730;51.960;20.158;2023-03-03T08:54:47;69.10;;;25.00;;
55800;SDS011;41730;51.960;20.158;2023-03-03T08:57:21;61.90;;;23.40;;
55800;SDS011;41730;51.960;20.158;2023-03-03T08:59:54;60.70;;;23.60;;
55800;SDS011;41730;51.960;20.158;2023-03-03T09:02:27;66.90;;;25.20;;
55800;SDS011;41730;51.960;20.158;2023-03-03T09:05:00;62.20;;;25.00;;
55800;SDS011;41730;51.960;20.158;2023-03-03T09:10:06;73.30;;;27.80;;
55800;SDS011;41730;51.960;20.158;2023-03-03T09:12:41;64.10;;;24.50;;
55800;SDS011;41730;51.960;20.158;2023-03-03T09:15:18;66.60;;;23.70;;
55800;SDS011;41730;51.960;20.158;2023-03-03T09:17:52;57.30;;;23.60;;
55800;SDS011;41730;51.960;20.158;2023-03-03T09:20:33;52.20;;;21.20;;
55800;SDS011;41730;51.960;20.158;2023-03-03T09:23:29;59.90;;;22.40;;
55800;SDS011;41730;51.960;20.158;2023-03-03T09:26:14;73.00;;;26.50;;
55800;SDS011;41730;51.960;20.158;2023-03-03T09:29:04;59.90;;;23.50;;
55800;SDS011;41730;51.960;20.158;2023-03-03T09:31:48;55.00;;;20.50;;
55800;SDS011;41730;51.960;20.158;2023-03-03T09:34:24;48.80;;;19.60;;
55800;SDS011;41730;51.960;20.158;2023-03-03T09:37:14;44.90;;;18.20;;
55800;SDS011;41730;51.960;20.158;2023-03-03T09:39:52;51.50;;;20.50;;
55800;SDS011;41730;51.960;20.158;2023-03-03T09:42:35;54.20;;;20.50;;
55800;SDS011;41730;51.960;20.158;2023-03-03T09:48:39;55.70;;;20.60;;
55800;SDS011;41730;51.960;20.158;2023-03-03T09:51:35;54.10;;;19.90;;
55800;SDS011;41730;51.960;20.158;2023-03-03T09:54:37;56.60;;;20.30;;
55800;SDS011;41730;51.960;20.158;2023-03-03T09:57:33;51.00;;;20.10;;
55800;SDS011;41730;51.960;20.158;2023-03-03T10:00:40;54.00;;;20.80;;
55800;SDS011;41730;51.960;20.158;2023-03-03T10:03:38;52.70;;;21.00;;
55800;SDS011;41730;51.960;20.158;2023-03-03T10:06:24;63.10;;;22.40;;
55800;SDS011;41730;51.960;20.158;2023-03-03T10:12:06;55.40;;;21.60;;
55800;SDS011;41730;51.960;20.158;2023-03-03T10:14:52;50.40;;;19.70;;
55800;SDS011;41730;51.960;20.158;2023-03-03T10:17:45;46.50;;;18.40;;
55800;SDS011;41730;51.960;20.158;2023-03-03T10:20:25;45.10;;;18.50;;
55800;SDS011;41730;51.960;20.158;2023-03-03T10:23:20;45.60;;;19.80;;
55800;SDS011;41730;51.960;20.158;2023-03-03T10:26:03;50.90;;;18.50;;
55800;SDS011;41730;51.960;20.158;2023-03-03T10:31:51;48.30;;;19.00;;
55800;SDS011;41730;51.960;20.158;2023-03-03T10:34:40;47.10;;;18.90;;
55800;SDS011;41730;51.960;20.158;2023-03-03T10:37:31;50.80;;;19.90;;
55800;SDS011;41730;51.960;20.158;2023-03-03T10:40:17;51.60;;;21.50;;
55800;SDS011;41730;51.960;20.158;2023-03-03T10:43:04;48.10;;;19.00;;
55800;SDS011;41730;51.960;20.158;2023-03-03T10:46:17;53.40;;;20.20;;
55800;SDS011;41730;51.960;20.158;2023-03-03T10:49:04;52.80;;;21.00;;
55800;SDS011;41730;51.960;20.158;2023-03-03T10:51:52;50.00;;;20.40;;
55800;SDS011;41730;51.960;20.158;2023-03-03T10:54:41;50.80;;;20.50;;
55800;SDS011;41730;51.960;20.158;2023-03-03T10:57:23;52.00;;;21.60;;
55800;SDS011;41730;51.960;20.158;2023-03-03T11:00:06;56.20;;;22.40;;
55800;SDS011;41730;51.960;20.158;2023-03-03T11:02:52;43.30;;;18.40;;
55800;SDS011;41730;51.960;20.158;2023-03-03T11:05:45;43.20;;;18.50;;
55800;SDS011;41730;51.960;20.158;2023-03-03T11:08:21;42.30;;;17.20;;
55800;SDS011;41730;51.960;20.158;2023-03-03T11:10:59;42.80;;;18.80;;
55800;SDS011;41730;51.960;20.158;2023-03-03T11:13:44;44.70;;;17.90;;
55800;SDS011;41730;51.960;20.158;2023-03-03T11:16:27;45.40;;;19.30;;
55800;SDS011;41730;51.960;20.158;2023-03-03T11:19:23;40.40;;;17.80;;
55800;SDS011;41730;51.960;20.158;2023-03-03T11:22:09;48.90;;;21.50;;
55800;SDS011;41730;51.960;20.158;2023-03-03T11:24:56;47.10;;;19.90;;
55800;SDS011;41730;51.960;20.158;2023-03-03T11:27:47;53.20;;;21.00;;
55800;SDS011;41730;51.960;20.158;2023-03-03T11:30:44;51.50;;;21.20;;
55800;SDS011;41730;51.960;20.158;2023-03-03T11:33:30;47.80;;;19.90;;
55800;SDS011;41730;51.960;20.158;2023-03-03T11:36:11;53.30;;;20.80;;
55800;SDS011;41730;51.960;20.158;2023-03-03T11:38:58;47.40;;;20.50;;
55800;SDS011;41730;51.960;20.158;2023-03-03T11:41:36;44.60;;;18.30;;
55800;SDS011;41730;51.960;20.158;2023-03-03T11:44:15;50.40;;;19.50;;
55800;SDS011;41730;51.960;20.158;2023-03-03T11:46:53;50.40;;;19.60;;
55800;SDS011;41730;51.960;20.158;2023-03-03T11:49:31;49.90;;;19.10;;
55800;SDS011;41730;51.960;20.158;2023-03-03T11:52:14;49.50;;;18.80;;
55800;SDS011;41730;51.960;20.158;2023-03-03T11:54:58;42.60;;;17.60;;
55800;SDS011;41730;51.960;20.158;2023-03-03T11:57:37;51.10;;;21.20;;
55800;SDS011;41730;51.960;20.158;2023-03-03T12:00:17;51.60;;;20.40;;
55800;SDS011;41730;51.960;20.158;2023-03-03T12:03:00;44.10;;;18.80;;
55800;SDS011;41730;51.960;20.158;2023-03-03T12:05:46;54.30;;;22.30;;
55800;SDS011;41730;51.960;20.158;2023-03-03T12:11:30;49.00;;;22.40;;
55800;SDS011;41730;51.960;20.158;2023-03-03T12:14:12;44.00;;;19.00;;
55800;SDS011;41730;51.960;20.158;2023-03-03T12:16:57;44.10;;;19.00;;
55800;SDS011;41730;51.960;20.158;2023-03-03T12:19:38;39.80;;;18.30;;
55800;SDS011;41730;51.960;20.158;2023-03-03T12:22:24;40.00;;;17.00;;
55800;SDS011;41730;51.960;20.158;2023-03-03T12:25:07;43.90;;;19.00;;
55800;SDS011;41730;51.960;20.158;2023-03-03T12:27:59;45.90;;;20.00;;
55800;SDS011;41730;51.960;20.158;2023-03-03T12:30:44;45.90;;;18.80;;
55800;SDS011;41730;51.960;20.158;2023-03-03T12:33:33;44.90;;;18.20;;
55800;SDS011;41730;51.960;20.158;2023-03-03T12:36:32;49.70;;;20.90;;
55800;SDS011;41730;51.960;20.158;2023-03-03T12:39:19;45.50;;;21.10;;
55800;SDS011;41730;51.960;20.158;2023-03-03T12:42:05;44.80;;;19.00;;
55800;SDS011;41730;51.960;20.158;2023-03-03T12:44:45;44.10;;;18.10;;
55800;SDS011;41730;51.960;20.158;2023-03-03T12:47:29;48.20;;;20.40;;
55800;SDS011;41730;51.960;20.158;2023-03-03T12:50:13;51.70;;;21.60;;
55800;SDS011;41730;51.960;20.158;2023-03-03T12:53:03;43.80;;;19.70;;
55800;SDS011;41730;51.960;20.158;2023-03-03T12:55:52;47.00;;;20.00;;
55800;SDS011;41730;51.960;20.158;2023-03-03T12:58:33;49.50;;;21.00;;
55800;SDS011;41730;51.960;20.158;2023-03-03T13:01:16;45.20;;;22.00;;
55800;SDS011;41730;51.960;20.158;2023-03-03T13:04:02;43.80;;;20.80;;
55800;SDS011;41730;51.960;20.158;2023-03-03T13:06:42;51.60;;;22.40;;
55800;SDS011;41730;51.960;20.158;2023-03-03T13:09:25;48.80;;;21.10;;
55800;SDS011;41730;51.960;20.158;2023-03-03T13:12:12;52.40;;;22.20;;
55800;SDS011;41730;51.960;20.158;2023-03-03T13:14:59;46.30;;;20.00;;
55800;SDS011;41730;51.960;20.158;2023-03-03T13:17:44;45.10;;;20.00;;
55800;SDS011;41730;51.960;20.158;2023-03-03T13:20:29;46.70;;;20.10;;
55800;SDS011;41730;51.960;20.158;2023-03-03T13:23:11;47.80;;;22.30;;
55800;SDS011;41730;51.960;20.158;2023-03-03T13:25:56;45.70;;;22.10;;
55800;SDS011;41730;51.960;20.158;2023-03-03T13:28:37;54.10;;;25.40;;
55800;SDS011;41730;51.960;20.158;2023-03-03T13:31:15;53.80;;;24.50;;
55800;SDS011;41730;51.960;20.158;2023-03-03T13:33:51;50.70;;;23.30;;
55800;SDS011;41730;51.960;20.158;2023-03-03T13:36:25;52.40;;;24.30;;
55800;SDS011;41730;51.960;20.158;2023-03-03T13:39:09;51.10;;;21.70;;
55800;SDS011;41730;51.960;20.158;2023-03-03T13:41:49;54.00;;;25.50;;
55800;SDS011;41730;51.960;20.158;2023-03-03T13:44:27;54.60;;;25.90;;
55800;SDS011;41730;51.960;20.158;2023-03-03T13:47:09;56.90;;;28.00;;
55800;SDS011;41730;51.960;20.158;2023-03-03T13:49:51;51.00;;;26.10;;
55800;SDS011;41730;51.960;20.158;2023-03-03T13:52:30;57.50;;;28.50;;
55800;SDS011;41730;51.960;20.158;2023-03-03T13:55:15;48.70;;;23.90;;
55800;SDS011;41730;51.960;20.158;2023-03-03T13:57:59;55.50;;;27.20;;
55800;SDS011;41730;51.960;20.158;2023-03-03T14:00:39;58.90;;;27.20;;
55800;SDS011;41730;51.960;20.158;2023-03-03T14:03:24;53.70;;;25.20;;
55800;SDS011;41730;51.960;20.158;2023-03-03T14:06:18;71.90;;;37.50;;
55800;SDS011;41730;51.960;20.158;2023-03-03T14:11:50;53.50;;;26.20;;
55800;SDS011;41730;51.960;20.158;2023-03-03T14:14:39;49.30;;;24.70;;
55800;SDS011;41730;51.960;20.158;2023-03-03T14:17:19;45.30;;;23.40;;
55800;SDS011;41730;51.960;20.158;2023-03-03T14:20:01;45.20;;;23.70;;
55800;SDS011;41730;51.960;20.158;2023-03-03T14:22:45;51.10;;;25.80;;
55800;SDS011;41730;51.960;20.158;2023-03-03T14:25:23;52.50;;;25.10;;
55800;SDS011;41730;51.960;20.158;2023-03-03T14:28:03;51.40;;;25.20;;
55800;SDS011;41730;51.960;20.158;2023-03-03T14:30:41;51.60;;;27.00;;
55800;SDS011;41730;51.960;20.158;2023-03-03T14:33:18;59.20;;;29.40;;
55800;SDS011;41730;51.960;20.158;2023-03-03T14:36:03;52.40;;;26.80;;
55800;SDS011;41730;51.960;20.158;2023-03-03T14:38:47;54.70;;;26.60;;
55800;SDS011;41730;51.960;20.158;2023-03-03T14:41:20;44.50;;;22.70;;
55800;SDS011;41730;51.960;20.158;2023-03-03T14:47:04;47.20;;;23.90;;
55800;SDS011;41730;51.960;20.158;2023-03-03T14:49:52;40.30;;;21.80;;
55800;SDS011;41730;51.960;20.158;2023-03-03T14:52:28;44.30;;;23.20;;
55800;SDS011;41730;51.960;20.158;2023-03-03T14:55:07;57.60;;;33.80;;
55800;SDS011;41730;51.960;20.158;2023-03-03T14:58:03;47.50;;;24.60;;
55800;SDS011;41730;51.960;20.158;2023-03-03T15:03:46;52.50;;;26.10;;
55800;SDS011;41730;51.960;20.158;2023-03-03T15:06:28;53.20;;;27.20;;
55800;SDS011;41730;51.960;20.158;2023-03-03T15:11:57;52.70;;;26.70;;
55800;SDS011;41730;51.960;20.158;2023-03-03T15:14:36;63.70;;;36.70;;
55800;SDS011;41730;51.960;20.158;2023-03-03T15:17:28;60.20;;;34.30;;
55800;SDS011;41730;51.960;20.158;2023-03-03T15:20:15;62.40;;;36.60;;
55800;SDS011;41730;51.960;20.158;2023-03-03T15:23:04;50.50;;;28.50;;
55800;SDS011;41730;51.960;20.158;2023-03-03T15:25:50;48.80;;;26.20;;
55800;SDS011;41730;51.960;20.158;2023-03-03T15:28:30;48.70;;;26.70;;
55800;SDS011;41730;51.960;20.158;2023-03-03T15:31:10;45.60;;;24.40;;
55800;SDS011;41730;51.960;20.158;2023-03-03T15:34:02;47.90;;;26.20;;
55800;SDS011;41730;51.960;20.158;2023-03-03T15:36:48;44.10;;;24.80;;
55800;SDS011;41730;51.960;20.158;2023-03-03T15:39:29;46.90;;;24.80;;
55800;SDS011;41730;51.960;20.158;2023-03-03T15:42:12;47.00;;;24.80;;
55800;SDS011;41730;51.960;20.158;2023-03-03T15:44:55;52.30;;;28.50;;